Terminal Aerodrome Forecast
Issued by NWS Pueblo, CO

Home | Current Version | Previous Version | Text Only | Print | Product List | Glossary On
Versions: 1 2 3 4 5 6 7 8 9 10 11 12 13 14 15 16 17 18 19 20 21 22 23 24
000
FTUS45 KPUB 240532
TAFPUB
TAF
KPUB 240532Z 2406/2506 01040G50KT 2SM BLDU SCT020 SCT100 BKN200
     FM240800 35045G55KT 6SM -SHRA SCT025 BKN050
     FM241600 35040G50KT P6SM VCSH SCT050 BKN100
     FM242000 35025G35KT P6SM SCT100 BKN200
     FM250000 30012KT P6SM FEW200=

USA.gov is the U.S. government's official web portal to all federal, state and local government web resources and services.